Time;durP1;ratioP1;P1;durP2;ratioP2;P2;SDS_P1;SDS_P2;PMS_P1;PMS_P2;Temp;Humidity;BMP_temperature;BMP_pressure;BME280_temperature;BME280_humidity;BME280_pressure;Samples;Min_cycle;Max_cycle;Signal;HPM_P1;HPM_P2
2021/10/18 00:02:05;;;;;;;7.53;6.00;;;;;;;11.04;100.00;101473.25;5009808;28;20221;-77
2021/10/18 00:04:31;;;;;;;7.17;5.70;;;;;;;11.00;100.00;101477.56;4961460;28;20311;-76
2021/10/18 00:06:56;;;;;;;8.40;5.53;;;;;;;10.87;100.00;101472.50;4977833;28;20224;-77
2021/10/18 00:09:21;;;;;;;9.17;5.67;;;;;;;10.89;100.00;101473.06;4996947;28;20188;-76
2021/10/18 00:11:47;;;;;;;7.13;5.57;;;;;;;10.76;100.00;101471.56;4996680;28;20712;-77
2021/10/18 00:14:13;;;;;;;7.13;5.80;;;;;;;10.83;100.00;101476.81;4958362;28;20243;-77
2021/10/18 00:16:39;;;;;;;7.63;5.40;;;;;;;10.85;100.00;101469.22;4989758;28;20229;-78
2021/10/18 00:19:04;;;;;;;10.67;6.03;;;;;;;10.64;100.00;101466.50;4992815;28;20642;-77
2021/10/18 00:21:32;;;;;;;10.30;6.17;;;;;;;10.65;100.00;101470.88;5012689;28;20256;-77
2021/10/18 00:24:00;;;;;;;7.23;5.30;;;;;;;10.66;100.00;101472.50;4981300;28;20564;-76
2021/10/18 00:26:26;;;;;;;7.87;5.47;;;;;;;10.67;100.00;101469.53;4993280;28;20213;-77
2021/10/18 00:28:58;;;;;;;10.93;6.13;;;;;;;10.65;100.00;101476.31;4992165;28;20677;-76
2021/10/18 00:31:26;;;;;;;8.77;6.03;;;;;;;10.71;100.00;101478.00;5029387;28;20232;-77
2021/10/18 00:33:54;;;;;;;9.60;6.13;;;;;;;10.58;100.00;101481.91;4999269;28;20177;-77
2021/10/18 00:36:20;;;;;;;9.40;5.83;;;;;;;10.45;100.00;101492.34;5009695;28;20259;-77
2021/10/18 00:38:45;;;;;;;8.60;5.90;;;;;;;10.44;100.00;101488.81;5022142;28;20181;-77
2021/10/18 00:41:13;;;;;;;8.80;6.10;;;;;;;10.33;100.00;101486.22;4980043;28;20236;-77
2021/10/18 00:43:44;;;;;;;7.20;5.80;;;;;;;10.14;100.00;101487.53;5002401;28;20264;-77
2021/10/18 00:46:20;;;;;;;10.97;6.17;;;;;;;10.20;100.00;101492.00;4995922;28;20235;-77
2021/10/18 00:48:48;;;;;;;9.17;5.67;;;;;;;10.17;100.00;101491.66;5004913;28;20245;-76
2021/10/18 00:51:15;;;;;;;7.83;6.10;;;;;;;10.17;100.00;101491.66;5012558;28;20270;-77
2021/10/18 00:53:45;;;;;;;8.97;5.83;;;;;;;10.05;100.00;101488.22;5003198;28;20255;-77
2021/10/18 00:56:15;;;;;;;10.07;5.47;;;;;;;10.12;100.00;101489.69;4961392;28;20232;-77
2021/10/18 00:58:41;;;;;;;8.87;6.00;;;;;;;10.15;100.00;101488.38;4970238;28;20224;-77
2021/10/18 01:01:07;;;;;;;8.87;6.00;;;;;;;10.14;100.00;101481.31;5030205;28;20258;-77
2021/10/18 01:03:32;;;;;;;10.53;5.43;;;;;;;10.25;100.00;101483.91;4990063;28;20715;-77
2021/10/18 01:06:00;;;;;;;8.80;5.70;;;;;;;10.22;100.00;101486.28;4958362;28;20575;-76
2021/10/18 01:08:26;;;;;;;6.77;5.57;;;;;;;10.27;100.00;101503.47;4992916;28;20597;-76
2021/10/18 01:10:54;;;;;;;10.80;5.60;;;;;;;10.26;100.00;101496.44;4995984;28;20274;-76
2021/10/18 01:13:19;;;;;;;8.20;5.20;;;;;;;10.30;100.00;101496.75;5025156;28;20177;-77
2021/10/18 01:15:45;;;;;;;9.20;5.53;;;;;;;10.33;100.00;101501.66;4993020;28;20251;-77
2021/10/18 01:18:13;;;;;;;7.43;5.50;;;;;;;10.32;100.00;101500.03;5014156;28;20192;-76
2021/10/18 01:20:43;;;;;;;7.40;5.07;;;;;;;10.45;100.00;101485.00;5016317;28;20216;-75
2021/10/18 01:23:10;;;;;;;6.93;5.17;;;;;;;10.46;100.00;101492.09;5015136;28;20753;-75
2021/10/18 01:25:38;;;;;;;9.33;5.40;;;;;;;10.55;100.00;101489.75;4996600;28;20212;-75
2021/10/18 01:28:04;;;;;;;6.90;5.47;;;;;;;10.52;100.00;101501.13;4980087;28;20250;-75
2021/10/18 01:30:29;;;;;;;8.43;5.20;;;;;;;10.49;100.00;101507.91;4999192;28;20220;-76
2021/10/18 01:32:55;;;;;;;7.97;4.80;;;;;;;10.55;100.00;101496.03;4999736;28;20215;-76
2021/10/18 01:35:23;;;;;;;10.93;5.10;;;;;;;10.53;100.00;101492.75;5014092;28;20237;-75
2021/10/18 01:37:51;;;;;;;9.33;5.00;;;;;;;10.38;100.00;101499.84;4996732;28;20538;-75
2021/10/18 01:40:22;;;;;;;6.77;4.87;;;;;;;10.46;100.00;101508.41;4995691;28;20188;-75
2021/10/18 01:42:48;;;;;;;8.03;5.10;;;;;;;10.44;100.00;101498.88;5016450;28;20259;-75
2021/10/18 01:45:16;;;;;;;9.23;5.33;;;;;;;10.52;100.00;101501.13;5015965;28;20280;-75
2021/10/18 01:47:42;;;;;;;7.97;4.80;;;;;;;10.56;100.00;101496.84;4996115;28;20892;-76
2021/10/18 01:50:16;;;;;;;5.37;4.63;;;;;;;10.49;100.00;101497.03;4994045;28;20816;-75
2021/10/18 01:52:42;;;;;;;6.90;4.80;;;;;;;10.56;100.00;101492.22;5032219;28;20212;-75
2021/10/18 01:55:08;;;;;;;7.07;5.00;;;;;;;10.47;100.00;101491.00;5018337;28;20603;-75
2021/10/18 01:57:33;;;;;;;7.90;5.07;;;;;;;10.49;100.00;101497.03;4980127;28;20196;-75
2021/10/18 01:59:59;;;;;;;7.17;5.33;;;;;;;10.70;100.00;101487.25;4990981;28;20267;-75
2021/10/18 02:02:25;;;;;;;7.53;4.80;;;;;;;10.62;100.00;101493.94;5014930;28;20236;-76
2021/10/18 02:04:50;;;;;;;9.53;5.00;;;;;;;10.65;100.00;101496.16;4986216;28;20193;-75
2021/10/18 02:07:23;;;;;;;7.63;4.63;;;;;;;10.63;100.00;101492.06;4976194;28;20252;-75
2021/10/18 02:09:54;;;;;;;8.30;5.50;;;;;;;10.58;100.00;101481.91;4994189;28;20181;-75
2021/10/18 02:12:20;;;;;;;8.23;4.73;;;;;;;10.65;100.00;101485.28;5015811;28;20246;-75
2021/10/18 02:14:48;;;;;;;6.53;5.00;;;;;;;10.68;100.00;101490.22;4975590;28;20199;-75
2021/10/18 02:17:16;;;;;;;7.37;4.93;;;;;;;10.58;100.00;101487.34;4979311;28;20239;-74
2021/10/18 02:19:45;;;;;;;7.27;5.10;;;;;;;10.67;100.00;101493.19;5018108;28;20192;-75
2021/10/18 02:22:13;;;;;;;10.40;5.13;;;;;;;10.71;100.00;101489.69;5014612;28;20224;-75
2021/10/18 02:24:41;;;;;;;5.97;4.97;;;;;;;10.67;100.00;101494.00;4974523;28;20182;-76
2021/10/18 02:27:09;;;;;;;7.27;5.20;;;;;;;10.67;100.00;101483.13;4959478;28;20586;-75
2021/10/18 02:29:37;;;;;;;8.90;4.87;;;;;;;10.73;100.00;101484.81;4966807;28;20244;-74
2021/10/18 02:32:05;;;;;;;6.53;4.40;;;;;;;10.67;100.00;101483.13;4998932;28;20216;-75
2021/10/18 02:34:35;;;;;;;8.77;4.43;;;;;;;10.71;100.00;101481.53;5012068;28;20189;-75
2021/10/18 02:37:01;;;;;;;5.43;4.60;;;;;;;10.78;100.00;101484.91;4995392;28;20228;-75
2021/10/18 02:39:31;;;;;;;7.63;4.73;;;;;;;10.80;100.00;101482.75;4997036;28;20177;-75
2021/10/18 02:41:59;;;;;;;7.77;4.80;;;;;;;10.81;100.00;101477.06;5030680;28;20655;-76
2021/10/18 02:44:27;;;;;;;7.27;4.70;;;;;;;10.70;100.00;101487.25;4997535;28;20187;-76
2021/10/18 02:46:53;;;;;;;6.40;4.80;;;;;;;10.78;100.00;101487.63;5013340;28;20714;-75
2021/10/18 02:49:21;;;;;;;6.60;4.70;;;;;;;10.76;100.00;101487.06;4962284;28;20192;-76
2021/10/18 02:51:50;;;;;;;7.63;4.63;;;;;;;10.83;100.00;101487.69;4998319;28;20224;-75
2021/10/18 02:54:18;;;;;;;5.60;4.13;;;;;;;10.88;100.00;101480.41;4998510;28;20184;-75
2021/10/18 02:56:46;;;;;;;5.70;4.60;;;;;;;10.78;100.00;101479.47;4996401;28;20753;-76
2021/10/18 02:59:14;;;;;;;5.60;4.50;;;;;;;10.80;100.00;101478.16;4994400;28;20577;-75
2021/10/18 03:01:44;;;;;;;7.20;4.90;;;;;;;10.74;100.00;101472.91;5010809;28;20370;-75
2021/10/18 03:04:12;;;;;;;7.60;4.60;;;;;;;10.77;100.00;101478.66;4999120;28;20192;-76
2021/10/18 03:06:37;;;;;;;6.37;4.43;;;;;;;10.73;100.00;101481.31;4998160;28;20653;-75
2021/10/18 03:09:06;;;;;;;6.60;4.67;;;;;;;10.70;100.00;101482.63;4978169;28;20185;-75
2021/10/18 03:11:34;;;;;;;5.70;4.43;;;;;;;10.70;100.00;101481.81;5009099;28;20224;-75
2021/10/18 03:14:07;;;;;;;6.50;4.57;;;;;;;10.82;100.00;101483.31;4983410;28;20188;-75
2021/10/18 03:16:42;;;;;;;7.13;4.30;;;;;;;10.68;100.00;101478.50;5017070;28;20225;-75
2021/10/18 03:19:14;;;;;;;6.53;4.90;;;;;;;10.67;100.00;101476.88;4995341;28;20187;-75
2021/10/18 03:21:42;;;;;;;6.23;4.07;;;;;;;10.86;100.00;101476.28;4991943;28;20228;-76
2021/10/18 03:24:08;;;;;;;5.87;4.03;;;;;;;10.79;100.00;101486.56;5030440;28;20199;-76
2021/10/18 03:26:34;;;;;;;8.40;4.73;;;;;;;10.74;100.00;101483.78;5017296;28;20251;-75
2021/10/18 03:29:02;;;;;;;6.27;4.40;;;;;;;10.66;100.00;101492.38;4978452;28;20267;-75
2021/10/18 03:31:30;;;;;;;5.43;4.20;;;;;;;10.79;100.00;101481.94;5005106;28;20299;-75
2021/10/18 03:33:58;;;;;;;7.63;4.83;;;;;;;10.75;100.00;101482.72;5030403;28;20802;-75
2021/10/18 03:36:23;;;;;;;6.17;4.40;;;;;;;10.80;100.00;101488.19;4967813;28;20245;-75
2021/10/18 03:38:56;;;;;;;7.87;4.33;;;;;;;10.82;100.00;101491.47;4990739;28;20182;-75
2021/10/18 03:41:26;;;;;;;6.23;4.20;;;;;;;10.82;100.00;101486.03;5002881;28;20224;-77
2021/10/18 03:43:54;;;;;;;7.17;4.07;;;;;;;10.68;100.00;101495.66;5013996;28;20716;-76
2021/10/18 03:46:20;;;;;;;5.20;4.20;;;;;;;10.72;100.00;101496.78;5005282;28;20212;-75
2021/10/18 03:48:45;;;;;;;7.83;5.10;;;;;;;10.70;100.00;101492.69;4977246;28;20192;-75
2021/10/18 03:51:10;;;;;;;7.33;4.30;;;;;;;10.65;100.00;101501.59;4983641;28;20704;-76
2021/10/18 03:53:38;;;;;;;6.37;4.47;;;;;;;10.62;100.00;101501.25;4996892;28;20188;-75
2021/10/18 03:56:06;;;;;;;7.63;4.60;;;;;;;10.53;100.00;101503.59;5008555;28;20307;-76
2021/10/18 03:58:36;;;;;;;6.67;4.03;;;;;;;10.56;100.00;101505.00;4978821;28;20282;-76
2021/10/18 04:01:08;;;;;;;5.27;3.73;;;;;;;10.46;100.00;101507.59;4980738;28;20685;-76
2021/10/18 04:03:41;;;;;;;7.07;4.13;;;;;;;10.42;100.00;101501.81;5030147;28;20188;-76
2021/10/18 04:06:11;;;;;;;7.13;4.20;;;;;;;10.36;100.00;101501.19;5010043;28;20235;-76
2021/10/18 04:08:40;;;;;;;7.47;4.30;;;;;;;10.32;100.00;101509.00;4978322;28;20647;-76
2021/10/18 04:11:10;;;;;;;4.93;4.37;;;;;;;10.18;100.00;101512.31;5012250;28;20224;-76
2021/10/18 04:13:36;;;;;;;6.30;4.43;;;;;;;10.17;100.00;101508.78;4997151;28;20275;-76
2021/10/18 04:16:01;;;;;;;5.17;4.43;;;;;;;10.13;100.00;101512.25;5011157;28;20319;-76
2021/10/18 04:18:32;;;;;;;4.37;3.77;;;;;;;9.94;100.00;101508.13;4962255;28;20655;-76
2021/10/18 04:20:59;;;;;;;7.97;4.50;;;;;;;9.80;100.00;101508.69;4961274;28;20229;-76
2021/10/18 04:23:28;;;;;;;6.47;4.97;;;;;;;9.83;100.00;101510.91;4997781;28;20181;-77
2021/10/18 04:25:54;;;;;;;7.23;4.20;;;;;;;9.80;100.00;101511.41;5029223;28;20224;-76
2021/10/18 04:28:27;;;;;;;5.23;4.47;;;;;;;9.80;100.00;101509.50;4959762;28;20224;-76
2021/10/18 04:30:53;;;;;;;8.67;5.40;;;;;;;9.67;100.00;101512.53;4974153;28;20363;-76
2021/10/18 04:33:21;;;;;;;8.47;4.93;;;;;;;9.67;100.00;101517.16;4994228;28;20188;-76
2021/10/18 04:35:49;;;;;;;6.77;4.80;;;;;;;9.63;100.00;101522.25;5012984;28;20224;-75
2021/10/18 04:38:17;;;;;;;6.97;4.63;;;;;;;9.64;100.00;101521.16;4976514;28;20639;-76
2021/10/18 04:40:47;;;;;;;7.00;4.73;;;;;;;9.51;100.00;101522.56;4994170;28;20304;-76
2021/10/18 04:43:15;;;;;;;7.03;4.57;;;;;;;9.49;100.00;101525.50;5009038;28;20857;-76
2021/10/18 04:45:41;;;;;;;6.90;4.43;;;;;;;9.42;100.00;101524.81;4980559;28;20303;-76
2021/10/18 04:48:09;;;;;;;5.83;4.67;;;;;;;9.39;100.00;101525.31;5014726;28;20189;-75
2021/10/18 04:50:39;;;;;;;6.13;5.00;;;;;;;9.32;100.00;101526.50;4976776;28;20216;-76
2021/10/18 04:53:05;;;;;;;8.83;4.97;;;;;;;9.34;100.00;101532.50;5026004;28;20216;-76
2021/10/18 04:55:35;;;;;;;7.60;4.80;;;;;;;9.28;100.00;101539.72;5000785;28;20216;-77
2021/10/18 04:58:04;;;;;;;7.23;5.03;;;;;;;9.28;100.00;101534.31;4994357;28;20190;-76
2021/10/18 05:00:36;;;;;;;6.80;4.80;;;;;;;9.21;100.00;101538.22;4976564;28;20726;-76
2021/10/18 05:03:06;;;;;;;9.87;4.70;;;;;;;9.15;100.00;101539.19;5016953;28;20215;-76
2021/10/18 05:05:35;;;;;;;5.90;4.80;;;;;;;9.10;100.00;101541.00;5016129;28;20337;-75
2021/10/18 05:08:09;;;;;;;4.37;3.90;;;;;;;8.99;100.00;101534.56;5021931;28;20177;-76
2021/10/18 05:10:38;;;;;;;6.80;4.00;;;;;;;8.90;100.00;101541.41;4997126;28;20257;-76
2021/10/18 05:13:06;;;;;;;6.87;4.70;;;;;;;8.90;100.00;101554.13;5006999;28;20204;-76
2021/10/18 05:15:36;;;;;;;6.93;4.73;;;;;;;8.86;100.00;101555.66;4996050;28;20695;-76
2021/10/18 05:18:04;;;;;;;7.87;5.60;;;;;;;8.75;100.00;101553.00;4978065;28;20281;-75
2021/10/18 05:20:30;;;;;;;8.03;5.07;;;;;;;8.74;100.00;101554.06;4976025;28;20304;-76
2021/10/18 05:22:59;;;;;;;8.60;5.37;;;;;;;8.84;100.00;101553.22;5009952;28;20200;-75
2021/10/18 05:25:25;;;;;;;6.03;4.90;;;;;;;8.87;100.00;101557.31;5015660;28;20235;-75
2021/10/18 05:27:55;;;;;;;8.47;5.07;;;;;;;8.95;100.00;101559.66;4977128;28;20186;-76
2021/10/18 05:30:24;;;;;;;6.20;5.50;;;;;;;8.95;100.00;101546.91;5008533;28;20659;-76
2021/10/18 05:32:53;;;;;;;9.97;6.00;;;;;;;8.93;100.00;101543.63;5002912;28;20196;-76
2021/10/18 05:35:23;;;;;;;10.13;6.53;;;;;;;8.98;100.00;101556.47;5031920;28;20528;-76
2021/10/18 05:37:49;;;;;;;9.97;6.33;;;;;;;9.12;100.00;101555.13;5010800;28;20191;-76
2021/10/18 05:40:15;;;;;;;9.47;6.97;;;;;;;9.04;100.00;101552.78;5011987;28;20173;-76
2021/10/18 05:42:43;;;;;;;10.53;7.53;;;;;;;9.10;100.00;101557.25;4999993;28;20286;-76
2021/10/18 05:45:14;;;;;;;7.03;5.77;;;;;;;9.20;100.00;101558.28;5015786;28;20187;-76
2021/10/18 05:48:11;;;;;;;8.03;5.83;;;;;;;9.26;100.00;101560.03;5008613;28;20195;-76
2021/10/18 05:50:42;;;;;;;7.47;5.73;;;;;;;9.26;100.00;101565.44;5015788;28;20306;-76
2021/10/18 05:53:08;;;;;;;9.07;6.77;;;;;;;9.22;100.00;101562.38;4991000;28;20186;-76
2021/10/18 05:55:36;;;;;;;9.10;7.10;;;;;;;9.24;100.00;101562.16;4992571;28;20224;-76
2021/10/18 05:58:06;;;;;;;7.53;6.60;;;;;;;9.20;100.00;101558.28;5016910;28;20180;-76
2021/10/18 06:00:35;;;;;;;8.53;5.90;;;;;;;9.18;100.00;101559.59;5031291;28;20698;-76
2021/10/18 06:03:03;;;;;;;9.03;5.83;;;;;;;9.14;100.00;101559.25;4996034;28;20638;-75
2021/10/18 06:05:31;;;;;;;8.83;6.97;;;;;;;9.12;100.00;101557.81;4995434;28;20223;-75
2021/10/18 06:08:06;;;;;;;10.63;7.23;;;;;;;9.17;100.00;101556.03;4998540;28;20721;-76
2021/10/18 06:10:34;;;;;;;10.73;8.50;;;;;;;9.21;100.00;101559.91;5015148;28;20306;-76
2021/10/18 06:13:00;;;;;;;9.03;6.33;;;;;;;9.12;100.00;101555.97;5013385;28;20212;-76
2021/10/18 06:15:28;;;;;;;9.40;5.80;;;;;;;9.13;100.00;101562.19;4995469;28;20225;-76
2021/10/18 06:17:58;;;;;;;7.40;6.10;;;;;;;9.04;100.00;101558.22;4980348;28;20188;-76
2021/10/18 06:20:23;;;;;;;7.93;5.97;;;;;;;9.20;100.00;101567.22;4997859;28;20292;-76
2021/10/18 06:22:53;;;;;;;5.97;5.33;;;;;;;9.37;100.00;101568.09;5015384;28;20299;-75
2021/10/18 06:25:21;;;;;;;9.73;5.93;;;;;;;9.38;100.00;101583.31;4975813;28;20186;-76
2021/10/18 06:27:47;;;;;;;8.87;5.50;;;;;;;9.33;100.00;101574.25;4976174;28;20178;-76
2021/10/18 06:30:16;;;;;;;6.83;5.73;;;;;;;9.37;100.00;101592.50;5027495;28;20180;-76
2021/10/18 06:32:44;;;;;;;9.30;7.13;;;;;;;9.46;100.00;101579.41;5014943;28;20204;-77
2021/10/18 06:35:12;;;;;;;7.20;6.50;;;;;;;9.52;100.00;101578.41;4978543;28;20194;-76
2021/10/18 06:37:38;;;;;;;7.33;6.63;;;;;;;9.51;100.00;101582.22;4963051;28;20269;-77
2021/10/18 06:40:04;;;;;;;7.43;6.63;;;;;;;9.55;100.00;101584.19;5012218;28;20188;-76
2021/10/18 06:42:31;;;;;;;9.37;8.40;;;;;;;9.67;100.00;101583.06;5014966;28;20235;-76
2021/10/18 06:44:57;;;;;;;12.63;9.00;;;;;;;9.73;100.00;101582.09;4975527;28;20189;-77
2021/10/18 06:47:25;;;;;;;9.17;6.87;;;;;;;9.95;100.00;101596.63;4975553;28;20225;-76
2021/10/18 06:49:57;;;;;;;9.90;7.20;;;;;;;9.92;100.00;101596.28;5007019;28;20674;-75
2021/10/18 06:52:23;;;;;;;7.07;6.40;;;;;;;10.04;100.00;101597.88;4998098;28;20311;-76
2021/10/18 06:54:49;;;;;;;6.67;5.97;;;;;;;10.21;100.00;101607.66;5003383;28;20181;-77
2021/10/18 06:57:17;;;;;;;6.63;5.47;;;;;;;10.39;100.00;101608.22;4978941;28;20349;-76
2021/10/18 06:59:45;;;;;;;8.53;4.50;;;;;;;10.63;100.00;101603.44;4972166;28;20571;-76
2021/10/18 07:02:16;;;;;;;6.23;5.00;;;;;;;10.70;100.00;101596.75;5030600;28;20228;-76
2021/10/18 07:04:46;;;;;;;6.00;4.30;;;;;;;10.94;100.00;101598.19;5005758;28;20193;-76
2021/10/18 07:07:14;;;;;;;5.40;3.83;;;;;;;11.08;100.00;101605.72;5011091;28;20323;-76
2021/10/18 07:09:43;;;;;;;5.77;3.73;;;;;;;11.19;100.00;101597.44;5003172;28;20188;-76
2021/10/18 07:12:10;;;;;;;6.83;3.70;;;;;;;11.19;100.00;101602.88;5013824;28;20220;-76
2021/10/18 07:14:36;;;;;;;5.47;3.50;;;;;;;11.24;100.00;101604.81;5007296;28;20189;-76
2021/10/18 07:17:04;;;;;;;6.17;3.73;;;;;;;11.08;100.00;101610.31;4977559;28;20228;-76
2021/10/18 07:19:36;;;;;;;6.33;3.50;;;;;;;11.31;100.00;101606.28;4984131;28;20192;-75
2021/10/18 07:22:04;;;;;;;5.43;3.63;;;;;;;11.22;100.00;101610.50;5030035;28;20251;-76
2021/10/18 07:24:30;;;;;;;6.60;3.80;;;;;;;11.42;100.00;101621.63;5005739;28;20843;-76
2021/10/18 07:27:00;;;;;;;4.40;3.50;;;;;;;11.46;100.00;101625.53;4974872;28;20221;-76
2021/10/18 07:29:27;;;;;;;4.73;4.00;;;;;;;11.52;100.00;101624.53;4982242;28;20669;-76
2021/10/18 07:31:55;;;;;;;5.17;3.73;;;;;;;11.61;100.00;101622.97;5013417;28;20248;-76
2021/10/18 07:34:26;;;;;;;4.73;3.90;;;;;;;11.65;100.00;101629.56;5011758;28;20207;-76
2021/10/18 07:36:54;;;;;;;6.03;3.57;;;;;;;11.72;100.00;101635.63;4962448;28;20232;-76
2021/10/18 07:39:21;;;;;;;4.00;3.60;;;;;;;11.71;100.00;101623.09;4979133;28;20291;-76
2021/10/18 07:41:50;;;;;;;5.33;3.40;;;;;;;11.73;100.00;101626.38;5012896;28;20224;-76
2021/10/18 07:44:19;;;;;;;4.40;3.33;;;;;;;11.76;100.00;101620.44;4995245;28;20185;-76
2021/10/18 07:46:45;;;;;;;4.63;3.40;;;;;;;11.74;100.00;101628.88;4979343;28;20267;-76
2021/10/18 07:49:11;;;;;;;4.40;3.20;;;;;;;11.77;100.00;101628.31;4993709;28;20239;-76
2021/10/18 07:51:41;;;;;;;3.97;3.10;;;;;;;11.86;100.00;101621.34;4996343;28;20232;-76
2021/10/18 07:54:07;;;;;;;5.30;3.00;;;;;;;11.85;100.00;101630.63;5013778;28;20214;-76
2021/10/18 07:56:33;;;;;;;5.77;3.43;;;;;;;11.98;100.00;101625.56;4995784;28;20221;-77
2021/10/18 07:59:00;;;;;;;4.40;3.03;;;;;;;11.99;100.00;101627.19;4977278;28;20189;-76
2021/10/18 08:01:26;;;;;;;4.30;3.33;;;;;;;11.98;100.00;101624.75;4993143;28;20763;-76
2021/10/18 08:03:52;;;;;;;4.70;3.10;;;;;;;12.10;100.00;101637.09;5030059;28;20176;-76
2021/10/18 08:06:19;;;;;;;6.07;3.37;;;;;;;12.20;100.00;101631.78;4983037;28;20220;-76
2021/10/18 08:08:51;;;;;;;3.70;3.10;;;;;;;12.33;100.00;101639.50;5010125;28;20192;-77
2021/10/18 08:11:21;;;;;;;4.60;2.90;;;;;;;12.30;100.00;101634.56;5022727;28;20247;-76
2021/10/18 08:13:49;;;;;;;5.03;3.10;;;;;;;12.44;100.00;101636.59;5014193;28;20192;-76
2021/10/18 08:16:15;;;;;;;4.80;2.90;;;;;;;12.52;100.00;101643.47;4981047;28;20364;-77
2021/10/18 08:18:41;;;;;;;5.00;2.90;;;;;;;12.50;100.00;101646.44;4942127;28;20182;-76
2021/10/18 08:21:09;;;;;;;7.23;3.00;;;;;;;12.54;100.00;101641.31;4978717;28;20616;-76
2021/10/18 08:23:34;;;;;;;5.40;3.30;;;;;;;12.60;100.00;101651.16;5013386;28;20665;-76
2021/10/18 08:26:00;;;;;;;5.23;3.20;;;;;;;12.63;100.00;101654.19;5003907;28;20236;-76
2021/10/18 08:28:26;;;;;;;4.00;2.93;;;;;;;12.91;100.00;101649.25;5013227;28;20224;-76
2021/10/18 08:30:54;;;;;;;6.47;3.50;;;;;;;13.08;100.00;101644.44;5006471;28;20286;-76
2021/10/18 08:33:22;;;;;;;4.30;2.60;;;;;;;12.63;100.00;101653.38;5017436;28;20246;-76
2021/10/18 08:35:50;;;;;;;4.13;3.17;;;;;;;12.68;100.00;101656.16;5011098;28;20220;-76
2021/10/18 08:44:16;;;;;;;4.50;3.17;;;;;;;13.05;100.00;101666.78;4977078;28;20193;-76
2021/10/18 08:46:49;;;;;;;5.67;3.20;;;;;;;13.03;100.00;101660.78;4973019;28;20718;-77
2021/10/18 08:49:16;;;;;;;4.90;3.00;;;;;;;13.26;100.00;101663.06;4962000;28;20182;-76
2021/10/18 08:51:42;;;;;;;4.47;3.13;;;;;;;13.04;100.00;101661.59;4999002;28;20288;-77
2021/10/18 08:54:09;;;;;;;6.87;3.27;;;;;;;13.17;100.00;101664.69;5001117;28;20188;-76
2021/10/18 08:56:39;;;;;;;5.00;3.87;;;;;;;13.22;100.00;101656.50;5003668;28;20226;-77
2021/10/18 08:59:07;;;;;;;4.20;3.40;;;;;;;13.20;100.00;101662.22;4993257;28;20200;-76
2021/10/18 09:01:46;;;;;;;5.27;3.53;;;;;;;13.30;100.00;101656.84;5011433;28;20248;-76
2021/10/18 09:04:30;;;;;;;3.63;2.87;;;;;;;13.30;100.00;101654.13;5000624;28;20192;-75
2021/10/18 09:07:02;;;;;;;4.07;2.93;;;;;;;13.45;100.00;101660.44;5005181;28;20213;-77
2021/10/18 09:09:30;;;;;;;4.17;2.73;;;;;;;13.60;100.00;101660.50;5013173;28;20706;-76
2021/10/18 09:12:01;;;;;;;3.80;2.83;;;;;;;13.49;100.00;101664.28;4989997;28;20220;-76
2021/10/18 09:14:27;;;;;;;3.83;3.00;;;;;;;13.72;100.00;101657.56;5000591;28;20180;-76
2021/10/18 09:16:52;;;;;;;3.13;2.83;;;;;;;13.74;100.00;101660.84;5007053;28;20221;-76
2021/10/18 09:19:19;;;;;;;3.53;2.60;;;;;;;13.79;100.00;101658.97;4996411;28;20239;-76
2021/10/18 09:21:57;;;;;;;4.67;2.80;;;;;;;13.81;100.00;101662.25;5003582;28;20234;-75
2021/10/18 09:24:28;;;;;;;5.33;3.23;;;;;;;13.87;100.00;101650.22;5016822;28;20188;-77
2021/10/18 09:27:00;;;;;;;5.50;2.90;;;;;;;13.98;100.00;101657.38;5008053;28;20216;-76
2021/10/18 09:29:47;;;;;;;4.10;2.43;;;;;;;13.90;100.00;101664.19;4980672;28;20189;-76
2021/10/18 09:32:27;;;;;;;4.00;2.80;;;;;;;13.91;100.00;101659.53;5021974;28;20231;-76
2021/10/18 09:35:06;;;;;;;2.77;2.50;;;;;;;14.14;100.00;101650.84;5032907;28;20580;-76
2021/10/18 09:37:38;;;;;;;4.63;3.23;;;;;;;14.34;100.00;101662.63;4987490;28;20690;-76
2021/10/18 09:40:04;;;;;;;4.37;3.00;;;;;;;14.48;100.00;101652.81;4980299;28;20185;-76
2021/10/18 09:42:32;;;;;;;3.10;2.80;;;;;;;14.60;99.11;101651.44;5006465;28;20247;-77
2021/10/18 10:52:41;;;;;;;2.30;1.40;;;;;;;16.80;81.08;101654.53;4959661;28;20693;-77
2021/10/18 10:55:23;;;;;;;2.55;1.40;;;;;;;16.81;78.94;101651.50;4977048;28;20192;-77
2021/10/18 10:57:54;;;;;;;2.92;1.60;;;;;;;16.56;76.79;101645.41;4981906;28;20181;-76
2021/10/18 11:00:37;;;;;;;3.10;1.77;;;;;;;16.28;78.63;101645.34;5014553;28;20207;-76
2021/10/18 11:03:23;;;;;;;1.85;1.60;;;;;;;16.39;78.33;101635.94;5009492;28;20218;-77
2021/10/18 11:06:04;;;;;;;2.65;1.40;;;;;;;16.52;78.70;101635.28;5012192;28;20591;-76
2021/10/18 11:08:33;;;;;;;2.90;1.23;;;;;;;16.52;81.36;101630.63;5001496;28;20192;-76
2021/10/18 11:11:10;;;;;;;3.47;1.30;;;;;;;16.44;83.13;101627.66;5014226;28;20220;-77
2021/10/18 11:13:46;;;;;;;1.67;1.30;;;;;;;16.48;81.31;101623.25;5023096;28;20184;-76
2021/10/18 11:16:12;;;;;;;3.17;1.58;;;;;;;16.45;81.46;101619.16;5010878;28;20230;-76
2021/10/18 11:18:44;;;;;;;2.17;1.25;;;;;;;16.33;81.32;101609.66;4984902;28;20180;-76
2021/10/18 11:21:14;;;;;;;3.03;1.45;;;;;;;16.27;81.20;101616.28;5029686;28;20634;-76
2021/10/18 11:24:01;;;;;;;2.38;1.05;;;;;;;16.46;82.67;101609.00;4991614;28;20319;-76
2021/10/18 11:26:34;;;;;;;2.45;1.52;;;;;;;16.38;80.51;101604.13;4978821;28;20220;-77
2021/10/18 11:29:03;;;;;;;3.42;1.73;;;;;;;16.33;81.28;101610.47;5002839;28;20592;-77
2021/10/18 11:31:37;;;;;;;2.53;1.48;;;;;;;16.38;80.74;101606.88;5013110;28;20220;-76
2021/10/18 11:34:16;;;;;;;1.83;1.30;;;;;;;16.29;81.38;101601.19;5021961;28;20215;-76
2021/10/18 11:36:52;;;;;;;2.58;1.30;;;;;;;16.40;82.84;101616.44;4995889;28;20649;-76
2021/10/18 11:39:26;;;;;;;2.10;1.50;;;;;;;16.27;84.14;101616.28;4987708;28;20252;-76
2021/10/18 11:42:16;;;;;;;2.13;1.30;;;;;;;16.30;83.55;101615.69;5029528;28;20260;-77
2021/10/18 11:44:49;;;;;;;3.72;1.45;;;;;;;16.24;87.53;101614.13;5019291;28;20193;-77
2021/10/18 11:47:37;;;;;;;3.10;1.40;;;;;;;16.54;85.96;101600.13;5010025;28;20303;-77
2021/10/18 11:50:27;;;;;;;2.88;1.20;;;;;;;16.77;82.07;101603.75;4992273;28;20279;-77
2021/10/18 11:53:00;;;;;;;4.47;1.40;;;;;;;16.57;83.14;101600.38;5016442;28;20224;-76
2021/10/18 11:55:38;;;;;;;2.40;1.55;;;;;;;16.54;82.96;101600.97;4996461;28;20239;-77
2021/10/18 11:58:08;;;;;;;1.75;1.45;;;;;;;16.66;82.85;101599.47;4977717;28;20185;-76
2021/10/18 12:00:43;;;;;;;2.75;1.45;;;;;;;16.60;83.43;101595.16;5026829;28;20685;-77
2021/10/18 12:03:13;;;;;;;1.85;1.33;;;;;;;16.62;84.82;101587.44;5014265;28;20207;-76
2021/10/18 12:05:51;;;;;;;3.75;1.30;;;;;;;16.83;88.17;101583.41;4980967;28;20318;-77
2021/10/18 12:08:29;;;;;;;2.08;1.20;;;;;;;16.69;87.14;101582.44;4994569;28;20185;-77
2021/10/18 12:10:55;;;;;;;1.40;1.17;;;;;;;16.63;82.86;101583.59;4996043;28;20723;-76
2021/10/18 12:13:29;;;;;;;2.60;1.30;;;;;;;16.56;84.17;101586.97;4997505;28;20218;-76
2021/10/18 12:16:06;;;;;;;2.22;1.30;;;;;;;16.61;84.33;101579.50;4994529;28;20863;-77
2021/10/18 12:18:49;;;;;;;3.90;1.33;;;;;;;16.42;84.19;101580.50;4993090;28;20199;-76
2021/10/18 12:21:22;;;;;;;2.60;1.10;;;;;;;16.47;85.54;101577.72;4978762;28;20824;-76
2021/10/18 12:23:52;;;;;;;4.00;1.50;;;;;;;16.68;85.38;101575.34;5009956;28;20196;-77
2021/10/18 12:26:23;;;;;;;2.95;1.10;;;;;;;16.77;78.32;101573.56;4958554;28;20629;-77
2021/10/18 12:28:48;;;;;;;1.63;0.98;;;;;;;16.70;82.69;101572.28;4974136;28;20686;-76
2021/10/18 12:31:35;;;;;;;4.07;1.35;;;;;;;16.54;80.36;101579.03;5027201;28;20239;-76
2021/10/18 12:34:09;;;;;;;1.90;1.20;;;;;;;16.40;81.41;101572.56;5013658;28;20212;-76
2021/10/18 12:36:47;;;;;;;2.83;1.48;;;;;;;16.67;80.38;101565.44;5009585;28;20372;-77
2021/10/18 12:39:13;;;;;;;1.20;1.10;;;;;;;16.70;79.69;101558.56;5011614;28;20212;-77
2021/10/18 12:41:43;;;;;;;2.85;1.30;;;;;;;16.67;81.91;101562.72;4996581;28;20246;-76
2021/10/18 12:44:14;;;;;;;1.83;1.13;;;;;;;16.67;75.46;101562.72;5013715;28;20189;-76